sensor_id;sensor_type;location;lat;lon;timestamp;temperature;humidity
5136;DHT22;2586;48.710;9.202;2022-08-07T00:01:21;17.00;1.00
5136;DHT22;2586;48.710;9.202;2022-08-07T00:03:47;17.20;1.00
5136;DHT22;2586;48.710;9.202;2022-08-07T00:06:13;17.20;1.00
5136;DHT22;2586;48.710;9.202;2022-08-07T00:08:39;17.30;1.00
5136;DHT22;2586;48.710;9.202;2022-08-07T00:11:05;17.30;1.00
5136;DHT22;2586;48.710;9.202;2022-08-07T00:13:31;17.30;1.00
5136;DHT22;2586;48.710;9.202;2022-08-07T00:15:57;17.40;1.00
5136;DHT22;2586;48.710;9.202;2022-08-07T00:18:25;17.40;1.00
5136;DHT22;2586;48.710;9.202;2022-08-07T00:20:54;17.30;1.00
5136;DHT22;2586;48.710;9.202;2022-08-07T00:23:21;17.30;1.00
5136;DHT22;2586;48.710;9.202;2022-08-07T00:25:47;17.40;1.00
5136;DHT22;2586;48.710;9.202;2022-08-07T00:28:13;17.40;1.00
5136;DHT22;2586;48.710;9.202;2022-08-07T00:30:38;17.30;1.00
5136;DHT22;2586;48.710;9.202;2022-08-07T00:33:04;17.20;1.00
5136;DHT22;2586;48.710;9.202;2022-08-07T00:35:30;17.10;1.00
5136;DHT22;2586;48.710;9.202;2022-08-07T00:37:55;17.10;1.00
5136;DHT22;2586;48.710;9.202;2022-08-07T00:40:21;17.00;1.00
5136;DHT22;2586;48.710;9.202;2022-08-07T00:42:47;16.80;1.00
5136;DHT22;2586;48.710;9.202;2022-08-07T00:45:12;16.70;1.00
5136;DHT22;2586;48.710;9.202;2022-08-07T00:47:38;16.60;1.00
5136;DHT22;2586;48.710;9.202;2022-08-07T00:50:05;16.50;1.00
5136;DHT22;2586;48.710;9.202;2022-08-07T00:52:31;16.40;1.00
5136;DHT22;2586;48.710;9.202;2022-08-07T00:54:56;16.40;1.00
5136;DHT22;2586;48.710;9.202;2022-08-07T00:57:24;16.30;1.00
5136;DHT22;2586;48.710;9.202;2022-08-07T00:59:50;16.20;1.00
5136;DHT22;2586;48.710;9.202;2022-08-07T01:02:16;16.20;1.00
5136;DHT22;2586;48.710;9.202;2022-08-07T01:04:42;16.10;1.00
5136;DHT22;2586;48.710;9.202;2022-08-07T01:07:08;16.20;1.00
5136;DHT22;2586;48.710;9.202;2022-08-07T01:09:35;16.30;1.00
5136;DHT22;2586;48.710;9.202;2022-08-07T01:12:01;16.30;1.00
5136;DHT22;2586;48.710;9.202;2022-08-07T01:14:27;16.30;1.00
5136;DHT22;2586;48.710;9.202;2022-08-07T01:16:53;16.30;1.00
5136;DHT22;2586;48.710;9.202;2022-08-07T01:19:20;16.30;1.00
5136;DHT22;2586;48.710;9.202;2022-08-07T01:21:49;16.20;1.00
5136;DHT22;2586;48.710;9.202;2022-08-07T01:24:17;16.10;1.00
5136;DHT22;2586;48.710;9.202;2022-08-07T01:26:43;16.10;1.00
5136;DHT22;2586;48.710;9.202;2022-08-07T01:29:08;16.10;1.00
5136;DHT22;2586;48.710;9.202;2022-08-07T01:31:35;15.90;1.00
5136;DHT22;2586;48.710;9.202;2022-08-07T01:34:03;15.80;1.00
5136;DHT22;2586;48.710;9.202;2022-08-07T01:36:30;15.70;1.00
5136;DHT22;2586;48.710;9.202;2022-08-07T01:38:56;15.50;1.00
5136;DHT22;2586;48.710;9.202;2022-08-07T01:41:22;15.50;1.00
5136;DHT22;2586;48.710;9.202;2022-08-07T01:43:49;15.40;1.00
5136;DHT22;2586;48.710;9.202;2022-08-07T01:46:16;15.40;1.00
5136;DHT22;2586;48.710;9.202;2022-08-07T01:48:43;15.40;1.00
5136;DHT22;2586;48.710;9.202;2022-08-07T01:51:12;15.40;1.00
5136;DHT22;2586;48.710;9.202;2022-08-07T01:53:43;15.30;1.00
5136;DHT22;2586;48.710;9.202;2022-08-07T01:56:15;15.10;1.00
5136;DHT22;2586;48.710;9.202;2022-08-07T01:58:47;15.00;1.00
5136;DHT22;2586;48.710;9.202;2022-08-07T02:01:20;15.00;1.00
5136;DHT22;2586;48.710;9.202;2022-08-07T02:03:53;14.80;1.00
5136;DHT22;2586;48.710;9.202;2022-08-07T02:06:20;14.60;1.00
5136;DHT22;2586;48.710;9.202;2022-08-07T02:08:48;14.50;1.00
5136;DHT22;2586;48.710;9.202;2022-08-07T02:11:14;14.50;7.50
5136;DHT22;2586;48.710;9.202;2022-08-07T02:13:41;14.60;9.60
5136;DHT22;2586;48.710;9.202;2022-08-07T02:16:09;14.50;28.80
5136;DHT22;2586;48.710;9.202;2022-08-07T02:18:36;14.40;31.10
5136;DHT22;2586;48.710;9.202;2022-08-07T02:21:04;14.40;54.80
5136;DHT22;2586;48.710;9.202;2022-08-07T02:23:34;14.30;94.20
5136;DHT22;2586;48.710;9.202;2022-08-07T02:26:02;14.20;93.50
5136;DHT22;2586;48.710;9.202;2022-08-07T02:28:30;14.10;99.90
5136;DHT22;2586;48.710;9.202;2022-08-07T02:30:58;14.10;99.90
5136;DHT22;2586;48.710;9.202;2022-08-07T02:33:26;14.10;99.90
5136;DHT22;2586;48.710;9.202;2022-08-07T02:35:53;14.10;99.90
5136;DHT22;2586;48.710;9.202;2022-08-07T02:38:21;14.10;99.90
5136;DHT22;2586;48.710;9.202;2022-08-07T02:40:48;14.10;99.90
5136;DHT22;2586;48.710;9.202;2022-08-07T02:43:14;14.00;99.90
5136;DHT22;2586;48.710;9.202;2022-08-07T02:45:41;14.00;99.90
5136;DHT22;2586;48.710;9.202;2022-08-07T02:48:07;14.10;99.90
5136;DHT22;2586;48.710;9.202;2022-08-07T02:50:34;14.10;99.90
5136;DHT22;2586;48.710;9.202;2022-08-07T02:53:21;14.20;99.90
5136;DHT22;2586;48.710;9.202;2022-08-07T02:55:49;14.30;99.90
5136;DHT22;2586;48.710;9.202;2022-08-07T02:58:20;14.40;99.90
5136;DHT22;2586;48.710;9.202;2022-08-07T03:00:49;14.40;99.90
5136;DHT22;2586;48.710;9.202;2022-08-07T03:03:16;14.40;99.90
5136;DHT22;2586;48.710;9.202;2022-08-07T03:05:43;14.40;99.90
5136;DHT22;2586;48.710;9.202;2022-08-07T03:08:10;14.20;99.90
5136;DHT22;2586;48.710;9.202;2022-08-07T03:10:38;14.10;99.90
5136;DHT22;2586;48.710;9.202;2022-08-07T03:13:05;14.00;99.90
5136;DHT22;2586;48.710;9.202;2022-08-07T03:15:31;13.90;99.90
5136;DHT22;2586;48.710;9.202;2022-08-07T03:17:57;13.70;99.90
5136;DHT22;2586;48.710;9.202;2022-08-07T03:20:23;13.80;99.90
5136;DHT22;2586;48.710;9.202;2022-08-07T03:22:50;14.00;99.90
5136;DHT22;2586;48.710;9.202;2022-08-07T03:25:17;14.10;99.90
5136;DHT22;2586;48.710;9.202;2022-08-07T03:27:43;14.20;99.90
5136;DHT22;2586;48.710;9.202;2022-08-07T03:30:10;14.40;99.90
5136;DHT22;2586;48.710;9.202;2022-08-07T03:32:38;14.50;99.90
5136;DHT22;2586;48.710;9.202;2022-08-07T03:35:10;14.70;99.90
5136;DHT22;2586;48.710;9.202;2022-08-07T03:37:38;14.70;99.90
5136;DHT22;2586;48.710;9.202;2022-08-07T03:40:05;14.80;99.90
5136;DHT22;2586;48.710;9.202;2022-08-07T03:42:32;14.90;99.90
5136;DHT22;2586;48.710;9.202;2022-08-07T03:44:59;15.00;99.20
5136;DHT22;2586;48.710;9.202;2022-08-07T03:47:26;15.00;77.80
5136;DHT22;2586;48.710;9.202;2022-08-07T03:49:52;15.00;81.90
5136;DHT22;2586;48.710;9.202;2022-08-07T03:52:21;15.00;88.60
5136;DHT22;2586;48.710;9.202;2022-08-07T03:54:46;15.00;88.30
5136;DHT22;2586;48.710;9.202;2022-08-07T03:57:13;14.90;83.60
5136;DHT22;2586;48.710;9.202;2022-08-07T03:59:40;14.90;99.90
5136;DHT22;2586;48.710;9.202;2022-08-07T04:02:06;14.80;99.90
5136;DHT22;2586;48.710;9.202;2022-08-07T04:04:33;14.80;99.90
5136;DHT22;2586;48.710;9.202;2022-08-07T04:06:59;14.70;99.90
5136;DHT22;2586;48.710;9.202;2022-08-07T04:09:26;14.70;99.90
5136;DHT22;2586;48.710;9.202;2022-08-07T04:11:52;14.70;99.90
5136;DHT22;2586;48.710;9.202;2022-08-07T04:14:19;14.70;99.90
5136;DHT22;2586;48.710;9.202;2022-08-07T04:16:46;14.60;99.90
5136;DHT22;2586;48.710;9.202;2022-08-07T04:19:16;14.50;99.90
5136;DHT22;2586;48.710;9.202;2022-08-07T04:21:42;14.50;99.90
5136;DHT22;2586;48.710;9.202;2022-08-07T04:24:08;14.40;99.90
5136;DHT22;2586;48.710;9.202;2022-08-07T04:26:38;14.30;99.90
5136;DHT22;2586;48.710;9.202;2022-08-07T04:29:06;14.20;99.90
5136;DHT22;2586;48.710;9.202;2022-08-07T04:31:32;14.00;99.90
5136;DHT22;2586;48.710;9.202;2022-08-07T04:33:58;14.00;1.00
5136;DHT22;2586;48.710;9.202;2022-08-07T04:36:25;13.90;1.00
5136;DHT22;2586;48.710;9.202;2022-08-07T04:38:50;13.90;1.00
5136;DHT22;2586;48.710;9.202;2022-08-07T04:41:16;13.90;1.00
5136;DHT22;2586;48.710;9.202;2022-08-07T04:43:42;14.00;1.00
5136;DHT22;2586;48.710;9.202;2022-08-07T04:46:34;14.00;1.00
5136;DHT22;2586;48.710;9.202;2022-08-07T04:51:55;14.00;1.00
5136;DHT22;2586;48.710;9.202;2022-08-07T04:54:46;14.00;1.00
5136;DHT22;2586;48.710;9.202;2022-08-07T04:57:31;13.90;1.00
5136;DHT22;2586;48.710;9.202;2022-08-07T05:00:15;14.00;1.00
5136;DHT22;2586;48.710;9.202;2022-08-07T05:07:59;14.40;1.00
5136;DHT22;2586;48.710;9.202;2022-08-07T05:10:34;14.50;1.00
5136;DHT22;2586;48.710;9.202;2022-08-07T05:13:48;14.50;1.00
5136;DHT22;2586;48.710;9.202;2022-08-07T05:15:53;14.50;1.00
5136;DHT22;2586;48.710;9.202;2022-08-07T05:18:28;14.70;1.00
5136;DHT22;2586;48.710;9.202;2022-08-07T05:20:58;14.80;1.00
5136;DHT22;2586;48.710;9.202;2022-08-07T05:23:32;14.90;1.00
5136;DHT22;2586;48.710;9.202;2022-08-07T05:26:02;15.10;1.00
5136;DHT22;2586;48.710;9.202;2022-08-07T05:28:29;15.30;1.00
5136;DHT22;2586;48.710;9.202;2022-08-07T05:30:57;15.40;1.00
5136;DHT22;2586;48.710;9.202;2022-08-07T05:33:25;15.60;1.00
5136;DHT22;2586;48.710;9.202;2022-08-07T05:35:52;15.80;1.00
5136;DHT22;2586;48.710;9.202;2022-08-07T05:38:20;15.80;1.00
5136;DHT22;2586;48.710;9.202;2022-08-07T05:40:46;15.90;1.00
5136;DHT22;2586;48.710;9.202;2022-08-07T05:43:13;16.00;1.00
5136;DHT22;2586;48.710;9.202;2022-08-07T05:45:40;16.10;1.00
5136;DHT22;2586;48.710;9.202;2022-08-07T05:48:07;16.20;1.00
5136;DHT22;2586;48.710;9.202;2022-08-07T05:50:33;16.20;1.00
5136;DHT22;2586;48.710;9.202;2022-08-07T05:53:02;16.30;1.00
5136;DHT22;2586;48.710;9.202;2022-08-07T05:55:29;16.40;1.00
5136;DHT22;2586;48.710;9.202;2022-08-07T05:57:56;16.50;1.00
5136;DHT22;2586;48.710;9.202;2022-08-07T06:00:23;16.60;1.00
5136;DHT22;2586;48.710;9.202;2022-08-07T06:02:50;16.70;1.00
5136;DHT22;2586;48.710;9.202;2022-08-07T06:05:19;16.80;1.00
5136;DHT22;2586;48.710;9.202;2022-08-07T06:07:47;16.90;1.00
5136;DHT22;2586;48.710;9.202;2022-08-07T06:10:14;17.00;1.00
5136;DHT22;2586;48.710;9.202;2022-08-07T06:12:39;17.10;1.00
5136;DHT22;2586;48.710;9.202;2022-08-07T06:15:08;17.10;1.00
5136;DHT22;2586;48.710;9.202;2022-08-07T06:17:34;17.20;1.00
5136;DHT22;2586;48.710;9.202;2022-08-07T06:20:00;17.30;1.00
5136;DHT22;2586;48.710;9.202;2022-08-07T06:22:28;17.50;1.00
5136;DHT22;2586;48.710;9.202;2022-08-07T06:24:57;17.60;1.00
5136;DHT22;2586;48.710;9.202;2022-08-07T06:27:23;17.70;1.00
5136;DHT22;2586;48.710;9.202;2022-08-07T06:29:50;17.80;1.00
5136;DHT22;2586;48.710;9.202;2022-08-07T06:32:15;17.80;1.00
5136;DHT22;2586;48.710;9.202;2022-08-07T06:34:41;17.90;1.00
5136;DHT22;2586;48.710;9.202;2022-08-07T06:37:07;17.90;1.00
5136;DHT22;2586;48.710;9.202;2022-08-07T06:39:33;18.00;1.00
5136;DHT22;2586;48.710;9.202;2022-08-07T06:44:39;18.20;1.00
5136;DHT22;2586;48.710;9.202;2022-08-07T06:47:06;18.30;1.00
5136;DHT22;2586;48.710;9.202;2022-08-07T06:49:32;18.40;1.00
5136;DHT22;2586;48.710;9.202;2022-08-07T06:51:58;18.50;1.00
5136;DHT22;2586;48.710;9.202;2022-08-07T06:54:26;18.60;1.00
5136;DHT22;2586;48.710;9.202;2022-08-07T06:56:54;18.70;99.90
5136;DHT22;2586;48.710;9.202;2022-08-07T06:59:23;18.70;1.00
5136;DHT22;2586;48.710;9.202;2022-08-07T07:01:50;18.80;99.90
5136;DHT22;2586;48.710;9.202;2022-08-07T07:04:17;19.00;99.90
5136;DHT22;2586;48.710;9.202;2022-08-07T07:06:43;19.10;99.90
5136;DHT22;2586;48.710;9.202;2022-08-07T07:09:24;19.20;99.90
5136;DHT22;2586;48.710;9.202;2022-08-07T07:14:28;19.50;99.90
5136;DHT22;2586;48.710;9.202;2022-08-07T07:16:58;19.60;99.90
5136;DHT22;2586;48.710;9.202;2022-08-07T07:19:29;19.80;99.90
5136;DHT22;2586;48.710;9.202;2022-08-07T07:21:57;20.00;99.90
5136;DHT22;2586;48.710;9.202;2022-08-07T07:24:23;20.10;99.90
5136;DHT22;2586;48.710;9.202;2022-08-07T07:26:51;20.20;99.90
5136;DHT22;2586;48.710;9.202;2022-08-07T07:29:22;20.30;99.90
5136;DHT22;2586;48.710;9.202;2022-08-07T07:31:49;20.40;76.30
5136;DHT22;2586;48.710;9.202;2022-08-07T07:34:20;20.50;40.70
5136;DHT22;2586;48.710;9.202;2022-08-07T07:36:48;20.50;39.30
5136;DHT22;2586;48.710;9.202;2022-08-07T07:39:15;20.60;15.60
5136;DHT22;2586;48.710;9.202;2022-08-07T07:41:44;20.80;16.70
5136;DHT22;2586;48.710;9.202;2022-08-07T07:44:13;20.80;1.00
5136;DHT22;2586;48.710;9.202;2022-08-07T07:46:41;21.00;1.00
5136;DHT22;2586;48.710;9.202;2022-08-07T07:49:08;21.10;1.00
5136;DHT22;2586;48.710;9.202;2022-08-07T07:51:35;21.30;1.00
5136;DHT22;2586;48.710;9.202;2022-08-07T07:54:01;21.40;1.00
5136;DHT22;2586;48.710;9.202;2022-08-07T07:56:29;21.40;1.00
5136;DHT22;2586;48.710;9.202;2022-08-07T07:58:58;21.40;1.00
5136;DHT22;2586;48.710;9.202;2022-08-07T08:01:25;21.30;1.00
5136;DHT22;2586;48.710;9.202;2022-08-07T08:03:53;21.60;1.00
5136;DHT22;2586;48.710;9.202;2022-08-07T08:06:20;21.70;1.00
5136;DHT22;2586;48.710;9.202;2022-08-07T08:08:48;21.90;1.00
5136;DHT22;2586;48.710;9.202;2022-08-07T08:11:15;22.00;1.00
5136;DHT22;2586;48.710;9.202;2022-08-07T08:13:46;21.90;1.00
5136;DHT22;2586;48.710;9.202;2022-08-07T08:16:16;22.10;1.00
5136;DHT22;2586;48.710;9.202;2022-08-07T08:18:44;22.00;1.00
5136;DHT22;2586;48.710;9.202;2022-08-07T08:21:10;22.10;1.00
5136;DHT22;2586;48.710;9.202;2022-08-07T08:24:00;22.40;1.00
5136;DHT22;2586;48.710;9.202;2022-08-07T08:26:45;22.80;1.00
5136;DHT22;2586;48.710;9.202;2022-08-07T08:29:31;23.00;1.00
5136;DHT22;2586;48.710;9.202;2022-08-07T08:32:02;23.10;1.00
5136;DHT22;2586;48.710;9.202;2022-08-07T08:34:31;23.40;1.00
5136;DHT22;2586;48.710;9.202;2022-08-07T08:36:57;23.60;1.00
5136;DHT22;2586;48.710;9.202;2022-08-07T08:39:25;23.40;1.00
5136;DHT22;2586;48.710;9.202;2022-08-07T08:42:03;23.50;1.00
5136;DHT22;2586;48.710;9.202;2022-08-07T08:44:39;23.70;1.00
5136;DHT22;2586;48.710;9.202;2022-08-07T08:47:20;23.80;1.00
5136;DHT22;2586;48.710;9.202;2022-08-07T08:50:11;23.70;1.00
5136;DHT22;2586;48.710;9.202;2022-08-07T08:53:04;24.20;1.00
5136;DHT22;2586;48.710;9.202;2022-08-07T08:55:43;24.40;1.00
5136;DHT22;2586;48.710;9.202;2022-08-07T09:04:07;24.50;1.00
5136;DHT22;2586;48.710;9.202;2022-08-07T09:07:10;24.60;1.00
5136;DHT22;2586;48.710;9.202;2022-08-07T09:10:04;24.60;1.00
5136;DHT22;2586;48.710;9.202;2022-08-07T09:23:55;25.10;1.00
5136;DHT22;2586;48.710;9.202;2022-08-07T09:26:52;25.30;1.00
5136;DHT22;2586;48.710;9.202;2022-08-07T09:32:38;24.90;1.00
5136;DHT22;2586;48.710;9.202;2022-08-07T09:37:59;25.50;1.00
5136;DHT22;2586;48.710;9.202;2022-08-07T09:46:08;26.10;1.00
5136;DHT22;2586;48.710;9.202;2022-08-07T09:53:52;26.40;1.00
5136;DHT22;2586;48.710;9.202;2022-08-07T10:10:39;27.20;1.00
5136;DHT22;2586;48.710;9.202;2022-08-07T10:27:15;28.20;1.00
5136;DHT22;2586;48.710;9.202;2022-08-07T10:41:11;28.50;1.00
5136;DHT22;2586;48.710;9.202;2022-08-07T10:43:55;28.50;1.00
5136;DHT22;2586;48.710;9.202;2022-08-07T10:46:26;28.70;1.00
5136;DHT22;2586;48.710;9.202;2022-08-07T10:51:55;28.00;1.00
5136;DHT22;2586;48.710;9.202;2022-08-07T10:54:41;28.00;1.00
5136;DHT22;2586;48.710;9.202;2022-08-07T10:57:25;28.10;1.00
5136;DHT22;2586;48.710;9.202;2022-08-07T11:05:40;28.80;1.00
5136;DHT22;2586;48.710;9.202;2022-08-07T11:08:28;28.90;1.00
5136;DHT22;2586;48.710;9.202;2022-08-07T11:11:02;29.00;1.00
5136;DHT22;2586;48.710;9.202;2022-08-07T11:22:09;29.50;1.00
5136;DHT22;2586;48.710;9.202;2022-08-07T11:24:49;29.10;1.00
5136;DHT22;2586;48.710;9.202;2022-08-07T11:27:39;29.00;1.00
5136;DHT22;2586;48.710;9.202;2022-08-07T11:30:12;29.50;1.00
5136;DHT22;2586;48.710;9.202;2022-08-07T11:32:55;28.90;1.00
5136;DHT22;2586;48.710;9.202;2022-08-07T11:35:27;29.60;1.00
5136;DHT22;2586;48.710;9.202;2022-08-07T11:38:14;29.90;1.00
5136;DHT22;2586;48.710;9.202;2022-08-07T11:41:08;29.70;1.00
5136;DHT22;2586;48.710;9.202;2022-08-07T11:43:49;29.80;1.00
5136;DHT22;2586;48.710;9.202;2022-08-07T11:46:33;29.60;1.00
5136;DHT22;2586;48.710;9.202;2022-08-07T11:57:36;30.90;1.00
5136;DHT22;2586;48.710;9.202;2022-08-07T12:00:14;31.00;1.00
5136;DHT22;2586;48.710;9.202;2022-08-07T12:05:17;30.80;1.00
5136;DHT22;2586;48.710;9.202;2022-08-07T12:08:01;30.70;1.00
5136;DHT22;2586;48.710;9.202;2022-08-07T12:10:56;31.00;1.00
5136;DHT22;2586;48.710;9.202;2022-08-07T12:13:46;31.10;1.00
5136;DHT22;2586;48.710;9.202;2022-08-07T12:16:17;30.70;1.00
5136;DHT22;2586;48.710;9.202;2022-08-07T12:21:41;29.90;1.00
5136;DHT22;2586;48.710;9.202;2022-08-07T12:24:24;29.90;1.00
5136;DHT22;2586;48.710;9.202;2022-08-07T12:27:12;30.40;1.00
5136;DHT22;2586;48.710;9.202;2022-08-07T12:29:52;30.60;1.00
5136;DHT22;2586;48.710;9.202;2022-08-07T12:32:39;30.50;1.00
5136;DHT22;2586;48.710;9.202;2022-08-07T12:35:09;30.30;1.00
5136;DHT22;2586;48.710;9.202;2022-08-07T12:37:36;30.50;1.00
5136;DHT22;2586;48.710;9.202;2022-08-07T12:40:06;30.60;1.00
5136;DHT22;2586;48.710;9.202;2022-08-07T12:42:32;30.70;1.00
5136;DHT22;2586;48.710;9.202;2022-08-07T12:45:07;31.40;1.00
5136;DHT22;2586;48.710;9.202;2022-08-07T12:50:36;31.70;1.00
5136;DHT22;2586;48.710;9.202;2022-08-07T12:53:12;31.50;1.00
5136;DHT22;2586;48.710;9.202;2022-08-07T12:58:39;31.90;1.00
5136;DHT22;2586;48.710;9.202;2022-08-07T13:01:18;32.00;1.00
5136;DHT22;2586;48.710;9.202;2022-08-07T13:04:08;32.20;1.00
5136;DHT22;2586;48.710;9.202;2022-08-07T13:09:32;32.50;1.00
5136;DHT22;2586;48.710;9.202;2022-08-07T13:13:09;32.70;1.00
5136;DHT22;2586;48.710;9.202;2022-08-07T13:15:27;32.90;1.00
5136;DHT22;2586;48.710;9.202;2022-08-07T13:18:03;33.30;1.00
5136;DHT22;2586;48.710;9.202;2022-08-07T13:21:00;33.50;1.00
5136;DHT22;2586;48.710;9.202;2022-08-07T13:23:42;33.30;1.00
5136;DHT22;2586;48.710;9.202;2022-08-07T13:26:39;33.30;1.00
5136;DHT22;2586;48.710;9.202;2022-08-07T13:31:55;33.80;1.00
5136;DHT22;2586;48.710;9.202;2022-08-07T13:34:34;33.70;1.00
5136;DHT22;2586;48.710;9.202;2022-08-07T13:37:15;33.70;1.00
5136;DHT22;2586;48.710;9.202;2022-08-07T13:39:55;34.30;1.00
5136;DHT22;2586;48.710;9.202;2022-08-07T13:42:24;34.10;1.00
5136;DHT22;2586;48.710;9.202;2022-08-07T13:44:52;34.50;1.00
5136;DHT22;2586;48.710;9.202;2022-08-07T13:47:19;34.40;1.00
5136;DHT22;2586;48.710;9.202;2022-08-07T13:49:47;34.30;1.00
5136;DHT22;2586;48.710;9.202;2022-08-07T13:52:14;33.80;1.00
5136;DHT22;2586;48.710;9.202;2022-08-07T13:54:40;33.70;1.00
5136;DHT22;2586;48.710;9.202;2022-08-07T13:57:10;34.00;1.00
5136;DHT22;2586;48.710;9.202;2022-08-07T13:59:44;34.40;1.00
5136;DHT22;2586;48.710;9.202;2022-08-07T14:02:21;34.80;1.00
5136;DHT22;2586;48.710;9.202;2022-08-07T14:04:50;35.10;1.00
5136;DHT22;2586;48.710;9.202;2022-08-07T14:07:20;35.50;1.00
5136;DHT22;2586;48.710;9.202;2022-08-07T14:09:46;35.40;1.00
5136;DHT22;2586;48.710;9.202;2022-08-07T14:12:24;35.40;1.00
5136;DHT22;2586;48.710;9.202;2022-08-07T14:15:07;35.60;1.00
5136;DHT22;2586;48.710;9.202;2022-08-07T14:17:36;35.70;1.00
5136;DHT22;2586;48.710;9.202;2022-08-07T14:20:18;35.70;1.00
5136;DHT22;2586;48.710;9.202;2022-08-07T14:22:50;35.50;1.00
5136;DHT22;2586;48.710;9.202;2022-08-07T14:25:22;35.10;1.00
5136;DHT22;2586;48.710;9.202;2022-08-07T14:27:50;34.70;1.00
5136;DHT22;2586;48.710;9.202;2022-08-07T14:30:17;34.80;1.00
5136;DHT22;2586;48.710;9.202;2022-08-07T14:32:57;35.20;1.00
5136;DHT22;2586;48.710;9.202;2022-08-07T14:35:26;35.40;1.00
5136;DHT22;2586;48.710;9.202;2022-08-07T14:37:54;35.40;1.00
5136;DHT22;2586;48.710;9.202;2022-08-07T14:40:22;35.60;1.00
5136;DHT22;2586;48.710;9.202;2022-08-07T14:43:09;35.40;1.00
5136;DHT22;2586;48.710;9.202;2022-08-07T14:45:41;35.90;1.00
5136;DHT22;2586;48.710;9.202;2022-08-07T14:48:08;35.50;1.00
5136;DHT22;2586;48.710;9.202;2022-08-07T14:50:49;34.60;1.00
5136;DHT22;2586;48.710;9.202;2022-08-07T14:53:18;34.90;1.00
5136;DHT22;2586;48.710;9.202;2022-08-07T14:55:45;35.80;1.00
5136;DHT22;2586;48.710;9.202;2022-08-07T14:58:12;35.60;1.00
5136;DHT22;2586;48.710;9.202;2022-08-07T15:00:41;35.90;1.00
5136;DHT22;2586;48.710;9.202;2022-08-07T15:03:08;34.70;1.00
5136;DHT22;2586;48.710;9.202;2022-08-07T15:05:35;34.90;1.00
5136;DHT22;2586;48.710;9.202;2022-08-07T15:08:05;34.80;1.00
5136;DHT22;2586;48.710;9.202;2022-08-07T15:10:34;35.40;1.00
5136;DHT22;2586;48.710;9.202;2022-08-07T15:13:04;36.20;1.00
5136;DHT22;2586;48.710;9.202;2022-08-07T15:15:38;36.10;1.00
5136;DHT22;2586;48.710;9.202;2022-08-07T15:18:14;36.40;1.00
5136;DHT22;2586;48.710;9.202;2022-08-07T15:20:43;36.70;1.00
5136;DHT22;2586;48.710;9.202;2022-08-07T15:23:27;37.00;1.00
5136;DHT22;2586;48.710;9.202;2022-08-07T15:25:57;35.50;1.00
5136;DHT22;2586;48.710;9.202;2022-08-07T15:28:26;34.60;1.00
5136;DHT22;2586;48.710;9.202;2022-08-07T15:30:58;33.30;1.00
5136;DHT22;2586;48.710;9.202;2022-08-07T15:33:26;32.40;1.00
5136;DHT22;2586;48.710;9.202;2022-08-07T15:35:55;32.40;1.00
5136;DHT22;2586;48.710;9.202;2022-08-07T15:38:30;32.00;1.00
5136;DHT22;2586;48.710;9.202;2022-08-07T15:40:57;32.80;1.00
5136;DHT22;2586;48.710;9.202;2022-08-07T15:43:26;33.90;1.00
5136;DHT22;2586;48.710;9.202;2022-08-07T15:45:57;34.80;1.00
5136;DHT22;2586;48.710;9.202;2022-08-07T15:48:33;35.30;1.00
5136;DHT22;2586;48.710;9.202;2022-08-07T15:51:06;34.50;1.00
5136;DHT22;2586;48.710;9.202;2022-08-07T15:53:37;34.20;1.00
5136;DHT22;2586;48.710;9.202;2022-08-07T15:56:05;34.40;1.00
5136;DHT22;2586;48.710;9.202;2022-08-07T16:01:15;34.70;1.00
5136;DHT22;2586;48.710;9.202;2022-08-07T16:03:44;35.40;1.00
5136;DHT22;2586;48.710;9.202;2022-08-07T16:06:13;35.90;1.00
5136;DHT22;2586;48.710;9.202;2022-08-07T16:08:43;36.10;1.00
5136;DHT22;2586;48.710;9.202;2022-08-07T16:17:12;36.00;1.00
5136;DHT22;2586;48.710;9.202;2022-08-07T16:22:42;34.10;1.00
5136;DHT22;2586;48.710;9.202;2022-08-07T16:33:36;32.20;1.00
5136;DHT22;2586;48.710;9.202;2022-08-07T16:36:29;31.70;1.00
5136;DHT22;2586;48.710;9.202;2022-08-07T16:44:39;30.40;1.00
5136;DHT22;2586;48.710;9.202;2022-08-07T16:56:05;29.60;1.00
5136;DHT22;2586;48.710;9.202;2022-08-07T17:09:25;29.00;1.00
5136;DHT22;2586;48.710;9.202;2022-08-07T17:12:06;28.80;1.00
5136;DHT22;2586;48.710;9.202;2022-08-07T17:15:03;28.70;1.00
5136;DHT22;2586;48.710;9.202;2022-08-07T17:17:56;28.80;1.00
5136;DHT22;2586;48.710;9.202;2022-08-07T17:20:32;29.20;1.00
5136;DHT22;2586;48.710;9.202;2022-08-07T17:31:22;31.00;1.00
5136;DHT22;2586;48.710;9.202;2022-08-07T17:33:58;31.00;1.00
5136;DHT22;2586;48.710;9.202;2022-08-07T17:36:29;30.70;1.00
5136;DHT22;2586;48.710;9.202;2022-08-07T17:39:05;31.20;1.00
5136;DHT22;2586;48.710;9.202;2022-08-07T17:41:46;31.40;1.00
5136;DHT22;2586;48.710;9.202;2022-08-07T17:45:03;30.70;1.00
5136;DHT22;2586;48.710;9.202;2022-08-07T17:47:23;30.20;1.00
5136;DHT22;2586;48.710;9.202;2022-08-07T17:49:59;29.40;1.00
5136;DHT22;2586;48.710;9.202;2022-08-07T17:52:33;28.70;1.00
5136;DHT22;2586;48.710;9.202;2022-08-07T17:55:17;28.10;1.00
5136;DHT22;2586;48.710;9.202;2022-08-07T17:57:52;27.70;1.00
5136;DHT22;2586;48.710;9.202;2022-08-07T18:00:24;27.30;1.00
5136;DHT22;2586;48.710;9.202;2022-08-07T18:05:39;26.70;1.00
5136;DHT22;2586;48.710;9.202;2022-08-07T18:18:53;26.00;1.00
5136;DHT22;2586;48.710;9.202;2022-08-07T18:21:27;25.80;1.00
5136;DHT22;2586;48.710;9.202;2022-08-07T18:30:02;25.60;1.00
5136;DHT22;2586;48.710;9.202;2022-08-07T18:35:20;25.40;1.00
5136;DHT22;2586;48.710;9.202;2022-08-07T18:40:35;25.20;1.00
5136;DHT22;2586;48.710;9.202;2022-08-07T18:46:01;25.00;1.00
5136;DHT22;2586;48.710;9.202;2022-08-07T18:48:44;24.80;1.00
5136;DHT22;2586;48.710;9.202;2022-08-07T18:51:19;24.70;1.00
5136;DHT22;2586;48.710;9.202;2022-08-07T18:56:51;24.60;1.00
5136;DHT22;2586;48.710;9.202;2022-08-07T19:02:14;24.40;1.00
5136;DHT22;2586;48.710;9.202;2022-08-07T19:07:54;24.30;1.00
5136;DHT22;2586;48.710;9.202;2022-08-07T19:10:37;24.20;1.00
5136;DHT22;2586;48.710;9.202;2022-08-07T19:13:22;24.00;1.00
5136;DHT22;2586;48.710;9.202;2022-08-07T19:16:07;23.90;1.00
5136;DHT22;2586;48.710;9.202;2022-08-07T19:18:44;23.90;1.00
5136;DHT22;2586;48.710;9.202;2022-08-07T19:23:59;23.80;1.00
5136;DHT22;2586;48.710;9.202;2022-08-07T19:26:34;23.80;1.00
5136;DHT22;2586;48.710;9.202;2022-08-07T19:29:09;23.70;1.00
5136;DHT22;2586;48.710;9.202;2022-08-07T19:31:39;23.80;1.00
5136;DHT22;2586;48.710;9.202;2022-08-07T19:34:11;23.70;1.00
5136;DHT22;2586;48.710;9.202;2022-08-07T19:36:40;23.60;1.00
5136;DHT22;2586;48.710;9.202;2022-08-07T19:39:09;23.60;1.00
5136;DHT22;2586;48.710;9.202;2022-08-07T19:41:43;23.60;1.00
5136;DHT22;2586;48.710;9.202;2022-08-07T19:44:11;23.50;1.00
5136;DHT22;2586;48.710;9.202;2022-08-07T19:46:45;23.40;1.00
5136;DHT22;2586;48.710;9.202;2022-08-07T19:49:15;23.30;1.00
5136;DHT22;2586;48.710;9.202;2022-08-07T19:51:41;23.30;1.00
5136;DHT22;2586;48.710;9.202;2022-08-07T19:54:08;23.20;1.00
5136;DHT22;2586;48.710;9.202;2022-08-07T19:56:39;23.10;1.00
5136;DHT22;2586;48.710;9.202;2022-08-07T19:59:30;23.10;1.00
5136;DHT22;2586;48.710;9.202;2022-08-07T20:02:00;23.10;1.00
5136;DHT22;2586;48.710;9.202;2022-08-07T20:04:39;23.10;1.00
5136;DHT22;2586;48.710;9.202;2022-08-07T20:07:08;22.90;1.00
5136;DHT22;2586;48.710;9.202;2022-08-07T20:09:41;23.00;1.00
5136;DHT22;2586;48.710;9.202;2022-08-07T20:12:07;22.90;1.00
5136;DHT22;2586;48.710;9.202;2022-08-07T20:14:38;22.90;1.00
5136;DHT22;2586;48.710;9.202;2022-08-07T20:17:06;22.80;1.00
5136;DHT22;2586;48.710;9.202;2022-08-07T20:19:33;22.70;1.00
5136;DHT22;2586;48.710;9.202;2022-08-07T20:22:00;22.70;1.00
5136;DHT22;2586;48.710;9.202;2022-08-07T20:24:28;22.70;1.00
5136;DHT22;2586;48.710;9.202;2022-08-07T20:27:00;22.70;1.00